Time;durP1;ratioP1;P1;durP2;ratioP2;P2;SDS_P1;SDS_P2;PMS_P1;PMS_P2;Temp;Humidity;BMP_temperature;BMP_pressure;BME280_temperature;BME280_humidity;BME280_pressure;Samples;Min_cycle;Max_cycle;Signal;HPM_P1;HPM_P2
2023/03/31 00:00:37;;;;;;;0.70;0.70;;;18.00;43.40;;;;;;6004641;23;20183;-83
2023/03/31 00:03:08;;;;;;;0.88;0.70;;;18.00;43.50;;;;;;6053158;23;20134;-83
2023/03/31 00:05:39;;;;;;;0.68;0.63;;;18.00;43.50;;;;;;6029437;23;20164;-84
2023/03/31 00:08:06;;;;;;;0.50;0.50;;;18.00;43.50;;;;;;6005000;23;20153;-83
2023/03/31 00:10:36;;;;;;;0.60;0.60;;;18.00;43.50;;;;;;6028583;23;20146;-84
2023/03/31 00:13:02;;;;;;;0.50;0.50;;;18.00;43.50;;;;;;6005596;23;20586;-83
2023/03/31 00:15:29;;;;;;;1.13;0.50;;;18.00;43.50;;;;;;6052702;23;20153;-83
2023/03/31 00:17:59;;;;;;;1.13;0.85;;;18.00;43.50;;;;;;6029331;23;20150;-83
2023/03/31 00:20:25;;;;;;;0.50;0.47;;;18.00;43.50;;;;;;6053179;23;20530;-83
2023/03/31 00:22:53;;;;;;;1.05;0.50;;;18.00;43.60;;;;;;6053806;23;20194;-83
2023/03/31 00:25:19;;;;;;;0.95;0.50;;;18.00;43.70;;;;;;6053574;23;20488;-83
2023/03/31 00:27:49;;;;;;;1.40;0.68;;;18.00;43.60;;;;;;6030613;23;20145;-83
2023/03/31 00:30:20;;;;;;;0.55;0.55;;;18.00;43.60;;;;;;6005552;23;20160;-85
2023/03/31 00:32:46;;;;;;;0.93;0.60;;;18.00;43.80;;;;;;6029149;23;20479;-82
2023/03/31 00:35:16;;;;;;;0.50;0.50;;;17.90;43.70;;;;;;6078593;23;20134;-82
2023/03/31 00:37:44;;;;;;;0.82;0.60;;;17.90;43.70;;;;;;6006085;23;20153;-83
2023/03/31 00:40:15;;;;;;;0.55;0.50;;;17.90;43.80;;;;;;6056597;23;20130;-83
2023/03/31 00:42:41;;;;;;;0.85;0.50;;;18.00;43.80;;;;;;6031832;23;20200;-83
2023/03/31 00:45:26;;;;;;;0.90;0.60;;;17.90;43.70;;;;;;6055330;23;20141;-84
2023/03/31 00:48:13;;;;;;;0.82;0.70;;;18.00;43.80;;;;;;6080252;23;20143;-84
2023/03/31 00:50:43;;;;;;;0.70;0.57;;;17.90;43.70;;;;;;6031735;23;20613;-84
2023/03/31 00:53:11;;;;;;;0.50;0.50;;;17.90;43.80;;;;;;6055576;23;20153;-84
2023/03/31 00:55:39;;;;;;;0.65;0.40;;;17.90;43.80;;;;;;6055441;23;20167;-83
2023/03/31 00:58:05;;;;;;;0.73;0.73;;;17.90;43.70;;;;;;6032614;23;20150;-84
2023/03/31 01:00:31;;;;;;;0.70;0.68;;;17.90;43.80;;;;;;6033135;23;20152;-83
2023/03/31 01:03:01;;;;;;;1.33;0.80;;;17.90;43.80;;;;;;6031882;23;20149;-84
2023/03/31 01:05:38;;;;;;;0.70;0.57;;;17.90;43.80;;;;;;6056470;23;20222;-83
2023/03/31 01:08:04;;;;;;;0.65;0.65;;;17.90;43.80;;;;;;6034010;23;20149;-83
2023/03/31 01:10:40;;;;;;;0.52;0.50;;;17.90;43.80;;;;;;6056692;23;20134;-82
2023/03/31 01:13:09;;;;;;;1.23;0.60;;;17.90;43.90;;;;;;5987796;23;20149;-84
2023/03/31 01:15:41;;;;;;;0.60;0.50;;;17.90;43.80;;;;;;6031796;23;20582;-84
2023/03/31 01:18:19;;;;;;;1.00;0.52;;;17.90;43.80;;;;;;6008704;23;20181;-83
2023/03/31 01:21:24;;;;;;;0.60;0.60;;;17.90;43.90;;;;;;5986891;23;20149;-83
2023/03/31 01:24:23;;;;;;;1.88;0.60;;;17.90;43.90;;;;;;6081751;23;20137;-84
2023/03/31 01:27:23;;;;;;;0.73;0.60;;;17.80;43.90;;;;;;6063227;23;20579;-84
2023/03/31 01:30:11;;;;;;;0.60;0.60;;;17.90;43.90;;;;;;6056084;23;20153;-83
2023/03/31 01:33:03;;;;;;;0.90;0.80;;;17.90;44.00;;;;;;6014337;23;20213;-83
2023/03/31 01:35:56;;;;;;;0.75;0.73;;;17.80;43.80;;;;;;6056203;23;20593;-83
2023/03/31 01:38:38;;;;;;;0.50;0.50;;;17.90;44.00;;;;;;6060887;23;20177;-83
2023/03/31 01:41:34;;;;;;;1.13;0.70;;;17.80;43.90;;;;;;6056868;23;20173;-83
2023/03/31 01:44:32;;;;;;;1.35;0.50;;;17.90;43.90;;;;;;6035449;23;20153;-83
2023/03/31 01:47:02;;;;;;;0.70;0.70;;;17.90;43.90;;;;;;6103718;23;20164;-83
2023/03/31 01:49:42;;;;;;;0.60;0.60;;;17.90;43.90;;;;;;6056059;23;20156;-83
2023/03/31 01:52:32;;;;;;;0.50;0.50;;;17.90;43.90;;;;;;5986901;23;20229;-83
2023/03/31 01:55:08;;;;;;;0.57;0.45;;;17.90;44.00;;;;;;6083861;23;20170;-83
2023/03/31 01:57:36;;;;;;;0.70;0.70;;;17.80;43.90;;;;;;6056630;23;20165;-84
2023/03/31 02:00:11;;;;;;;1.02;0.50;;;17.90;43.90;;;;;;6032084;23;20240;-83
2023/03/31 02:02:41;;;;;;;0.70;0.63;;;17.90;43.90;;;;;;6077515;23;20220;-83
2023/03/31 02:05:10;;;;;;;0.75;0.60;;;17.80;43.90;;;;;;6055905;23;20138;-83
2023/03/31 02:07:42;;;;;;;0.73;0.57;;;17.80;44.40;;;;;;6054815;23;20161;-84
2023/03/31 02:10:09;;;;;;;0.80;0.60;;;17.80;43.90;;;;;;6081298;23;20145;-83
2023/03/31 02:12:41;;;;;;;0.50;0.50;;;17.80;43.90;;;;;;6032427;23;20145;-83
2023/03/31 02:15:09;;;;;;;1.17;0.50;;;17.80;44.00;;;;;;6077853;23;20185;-83
2023/03/31 02:17:38;;;;;;;0.68;0.60;;;17.80;44.10;;;;;;6054620;23;20200;-83
2023/03/31 02:20:08;;;;;;;2.22;0.52;;;17.90;44.10;;;;;;6032284;23;20609;-83
2023/03/31 02:22:39;;;;;;;0.50;0.50;;;17.80;44.10;;;;;;6055152;23;20169;-83
2023/03/31 02:25:07;;;;;;;0.50;0.50;;;17.80;44.00;;;;;;6055167;23;20163;-83
2023/03/31 02:27:38;;;;;;;0.50;0.50;;;17.80;43.90;;;;;;6055919;23;20182;-83
2023/03/31 02:30:09;;;;;;;0.70;0.70;;;17.80;44.00;;;;;;6054830;23;20157;-83
2023/03/31 02:32:38;;;;;;;0.60;0.60;;;17.80;43.90;;;;;;6054412;23;20628;-83
2023/03/31 02:35:10;;;;;;;0.57;0.57;;;17.80;44.00;;;;;;6031632;23;20566;-83
2023/03/31 02:37:36;;;;;;;0.82;0.60;;;17.80;44.00;;;;;;6079243;23;20228;-83
2023/03/31 02:40:09;;;;;;;0.45;0.45;;;17.80;44.00;;;;;;6031776;23;20149;-85
2023/03/31 02:42:41;;;;;;;0.50;0.50;;;17.80;44.00;;;;;;6055428;23;20254;-83
2023/03/31 02:45:43;;;;;;;0.88;0.70;;;17.80;44.10;;;;;;6031520;23;20232;-83
2023/03/31 02:48:12;;;;;;;0.95;0.70;;;17.80;44.10;;;;;;6054499;23;20240;-83
2023/03/31 02:51:06;;;;;;;0.50;0.50;;;17.80;44.10;;;;;;6022145;23;20254;-83
2023/03/31 02:54:03;;;;;;;0.70;0.60;;;17.80;44.10;;;;;;6027484;23;20130;-83
2023/03/31 02:57:03;;;;;;;0.70;0.50;;;17.80;44.10;;;;;;6026401;23;20207;-85
2023/03/31 02:59:47;;;;;;;1.15;0.52;;;17.80;44.10;;;;;;6052061;23;20139;-84
2023/03/31 03:02:31;;;;;;;0.73;0.60;;;17.70;44.20;;;;;;5958205;23;20189;-83
2023/03/31 03:05:38;;;;;;;0.77;0.50;;;17.80;44.10;;;;;;5981535;23;20208;-83
2023/03/31 03:08:38;;;;;;;0.57;0.57;;;17.80;44.10;;;;;;6020322;23;20150;-84
2023/03/31 03:11:35;;;;;;;0.82;0.60;;;17.80;44.10;;;;;;5947454;23;20159;-84
2023/03/31 03:14:34;;;;;;;1.42;0.60;;;17.80;44.20;;;;;;5979212;23;20154;-84
2023/03/31 03:17:17;;;;;;;0.50;0.50;;;17.80;44.20;;;;;;5979242;23;20158;-84
2023/03/31 03:19:51;;;;;;;0.77;0.70;;;17.70;44.10;;;;;;5981441;23;20158;-83
2023/03/31 03:22:21;;;;;;;0.82;0.50;;;17.80;44.10;;;;;;5958300;23;20192;-84
2023/03/31 03:24:51;;;;;;;0.60;0.60;;;17.80;44.20;;;;;;5978928;23;20154;-83
2023/03/31 03:27:21;;;;;;;0.85;0.63;;;17.80;44.20;;;;;;5979117;23;20150;-83
2023/03/31 03:29:51;;;;;;;2.78;0.75;;;17.70;44.20;;;;;;5979715;23;20154;-83
2023/03/31 03:32:20;;;;;;;0.93;0.60;;;17.70;44.10;;;;;;5933333;23;20193;-83
2023/03/31 03:34:51;;;;;;;0.50;0.50;;;17.80;44.30;;;;;;5954974;23;20467;-83
2023/03/31 03:37:20;;;;;;;0.80;0.60;;;17.70;44.20;;;;;;5977754;23;20158;-83
2023/03/31 03:39:50;;;;;;;0.70;0.55;;;17.80;44.10;;;;;;5977169;23;20162;-83
2023/03/31 03:42:19;;;;;;;1.83;0.60;;;17.70;44.20;;;;;;5955009;23;20622;-84
2023/03/31 03:44:51;;;;;;;0.63;0.63;;;17.70;44.20;;;;;;5932616;23;20166;-83
2023/03/31 03:47:21;;;;;;;0.75;0.60;;;17.70;44.20;;;;;;5978475;23;20161;-83
2023/03/31 03:49:50;;;;;;;0.77;0.60;;;17.70;44.30;;;;;;5955055;23;20213;-83
2023/03/31 03:52:19;;;;;;;0.85;0.60;;;17.60;44.20;;;;;;5983137;23;20173;-83
2023/03/31 03:54:48;;;;;;;1.35;0.63;;;17.80;44.30;;;;;;5960992;23;20231;-83
2023/03/31 03:57:16;;;;;;;1.67;0.50;;;17.70;44.20;;;;;;6006988;23;20153;-83
2023/03/31 03:59:44;;;;;;;0.50;0.50;;;17.70;44.20;;;;;;6006075;23;20217;-82
2023/03/31 04:02:12;;;;;;;0.60;0.40;;;17.70;44.20;;;;;;5983418;23;20250;-83
2023/03/31 04:04:42;;;;;;;0.88;0.52;;;17.70;44.20;;;;;;6007090;23;20186;-83
2023/03/31 04:07:09;;;;;;;0.70;0.60;;;17.70;44.40;;;;;;5984353;23;20160;-83
2023/03/31 04:09:37;;;;;;;0.95;0.70;;;17.70;44.20;;;;;;5960766;23;20182;-82
2023/03/31 04:12:08;;;;;;;0.93;0.50;;;17.70;44.20;;;;;;6029283;23;20165;-83
2023/03/31 04:14:38;;;;;;;0.68;0.63;;;17.70;44.20;;;;;;6007336;23;20157;-83
2023/03/31 04:17:06;;;;;;;0.70;0.70;;;17.70;44.30;;;;;;5983163;23;20608;-83
2023/03/31 04:19:33;;;;;;;0.63;0.57;;;17.70;44.20;;;;;;6006654;23;20161;-83
2023/03/31 04:22:10;;;;;;;0.70;0.60;;;17.70;44.20;;;;;;6006743;23;20191;-83
2023/03/31 04:24:38;;;;;;;0.60;0.60;;;17.70;44.30;;;;;;5987659;23;20623;-83
2023/03/31 04:27:06;;;;;;;0.70;0.50;;;17.70;44.30;;;;;;6006639;23;20157;-83
2023/03/31 04:29:38;;;;;;;0.80;0.63;;;17.70;44.20;;;;;;5983530;23;20177;-83
2023/03/31 04:32:08;;;;;;;0.80;0.80;;;17.70;44.30;;;;;;6006404;23;20526;-83
2023/03/31 04:34:39;;;;;;;0.95;0.50;;;17.60;44.30;;;;;;5972913;23;20160;-83
2023/03/31 04:37:09;;;;;;;0.50;0.50;;;17.70;44.30;;;;;;6006711;23;20161;-84
2023/03/31 04:39:36;;;;;;;0.95;0.70;;;17.70;44.30;;;;;;6031061;23;20192;-82
2023/03/31 04:42:03;;;;;;;0.75;0.60;;;17.70;44.30;;;;;;5983106;23;20220;-83
2023/03/31 04:44:33;;;;;;;0.45;0.45;;;17.70;44.20;;;;;;5983709;23;20618;-82
2023/03/31 04:47:01;;;;;;;1.50;0.47;;;17.60;44.20;;;;;;5960238;23;20153;-83
2023/03/31 04:49:28;;;;;;;0.50;0.50;;;17.70;44.30;;;;;;6004268;23;20213;-83
2023/03/31 04:51:54;;;;;;;1.30;0.70;;;17.70;44.30;;;;;;6024037;23;20279;-84
2023/03/31 04:54:24;;;;;;;0.50;0.50;;;17.70;44.20;;;;;;6072335;23;20149;-84
2023/03/31 04:56:50;;;;;;;1.02;0.60;;;17.70;44.40;;;;;;6019786;23;20161;-84
2023/03/31 04:59:16;;;;;;;1.75;0.50;;;17.60;44.10;;;;;;6021927;23;20160;-84
2023/03/31 05:01:45;;;;;;;0.65;0.65;;;17.70;44.40;;;;;;6045103;23;20173;-84
2023/03/31 05:04:11;;;;;;;0.90;0.57;;;17.70;44.30;;;;;;6020243;23;20212;-84
2023/03/31 05:06:37;;;;;;;0.93;0.63;;;17.70;44.40;;;;;;6043902;23;20165;-84
2023/03/31 05:09:08;;;;;;;1.00;0.60;;;17.70;44.40;;;;;;6071735;23;20161;-83
2023/03/31 05:11:34;;;;;;;0.55;0.55;;;17.70;44.30;;;;;;6022174;23;20240;-83
2023/03/31 05:14:00;;;;;;;0.50;0.50;;;17.70;44.40;;;;;;6021907;23;20157;-84
2023/03/31 05:16:26;;;;;;;1.05;0.60;;;17.70;44.40;;;;;;6020442;23;20168;-83
2023/03/31 05:18:56;;;;;;;0.85;0.50;;;17.70;44.30;;;;;;6020340;23;20574;-83
2023/03/31 05:21:22;;;;;;;1.15;0.70;;;17.60;44.30;;;;;;5996554;23;20185;-84
2023/03/31 05:23:52;;;;;;;2.10;0.50;;;17.70;44.40;;;;;;6092470;23;20150;-84
2023/03/31 05:26:24;;;;;;;1.80;0.63;;;17.70;44.40;;;;;;5998259;23;20188;-84
2023/03/31 05:28:51;;;;;;;0.50;0.50;;;17.70;44.40;;;;;;5976061;23;20153;-84
2023/03/31 05:31:17;;;;;;;0.50;0.50;;;17.70;44.40;;;;;;6023080;23;20258;-84
2023/03/31 05:33:43;;;;;;;0.70;0.70;;;17.70;44.40;;;;;;6022966;23;20150;-85
2023/03/31 05:36:12;;;;;;;1.33;0.60;;;17.70;44.40;;;;;;6047759;23;20509;-84
2023/03/31 05:38:39;;;;;;;1.02;0.77;;;17.70;44.30;;;;;;6022223;23;20156;-85
2023/03/31 05:41:05;;;;;;;0.70;0.70;;;17.70;44.10;;;;;;6046546;23;20672;-84
2023/03/31 05:43:31;;;;;;;0.80;0.60;;;17.80;44.10;;;;;;6046012;23;20138;-85
2023/03/31 05:45:57;;;;;;;0.73;0.47;;;17.70;44.10;;;;;;6022546;23;20516;-84
2023/03/31 05:48:27;;;;;;;1.75;0.50;;;17.70;44.00;;;;;;6046165;23;20137;-84
2023/03/31 05:50:57;;;;;;;0.50;0.50;;;17.80;44.10;;;;;;6015820;23;20208;-84
2023/03/31 05:53:24;;;;;;;0.50;0.50;;;17.80;44.20;;;;;;5993703;23;20229;-84
2023/03/31 05:55:55;;;;;;;0.90;0.70;;;17.80;44.20;;;;;;5993641;23;20202;-85
2023/03/31 05:58:21;;;;;;;1.35;0.80;;;17.80;44.40;;;;;;6016910;23;20134;-84
2023/03/31 06:00:47;;;;;;;2.20;0.70;;;17.80;44.50;;;;;;6016993;23;20148;-84
2023/03/31 06:03:13;;;;;;;2.38;0.90;;;17.80;44.60;;;;;;5993128;23;20146;-84
2023/03/31 06:05:40;;;;;;;5.85;1.00;;;17.70;44.80;;;;;;5992939;23;20146;-84
2023/03/31 06:08:10;;;;;;;2.58;0.65;;;17.80;44.80;;;;;;6018441;23;20186;-84
2023/03/31 06:10:37;;;;;;;4.43;0.68;;;17.70;44.80;;;;;;5923303;23;20161;-84
2023/03/31 06:13:03;;;;;;;1.67;0.60;;;17.70;44.80;;;;;;6017866;23;20143;-84
2023/03/31 06:15:34;;;;;;;1.33;0.50;;;17.60;44.90;;;;;;6017169;23;20143;-84
2023/03/31 06:18:00;;;;;;;0.85;0.60;;;17.70;45.10;;;;;;5992985;23;20169;-84
2023/03/31 06:20:26;;;;;;;1.67;0.60;;;17.70;45.00;;;;;;6042787;23;20147;-83
2023/03/31 06:22:52;;;;;;;0.50;0.50;;;17.70;45.00;;;;;;5993232;23;20293;-83
2023/03/31 06:25:18;;;;;;;0.95;0.70;;;17.70;44.90;;;;;;6042455;23;20134;-83
2023/03/31 06:27:44;;;;;;;0.68;0.60;;;17.70;44.90;;;;;;5994274;23;20205;-83
2023/03/31 06:30:15;;;;;;;0.63;0.63;;;17.70;45.00;;;;;;6043299;23;20130;-84
2023/03/31 06:32:41;;;;;;;1.42;0.60;;;17.70;44.90;;;;;;5969432;23;20158;-84
2023/03/31 06:35:11;;;;;;;0.90;0.70;;;17.70;44.70;;;;;;6017359;23;20183;-84
2023/03/31 06:37:37;;;;;;;0.60;0.50;;;17.70;44.70;;;;;;5993355;23;20165;-84
2023/03/31 06:40:08;;;;;;;0.82;0.70;;;17.70;44.50;;;;;;6017403;23;20170;-86
2023/03/31 06:42:34;;;;;;;1.77;0.52;;;17.80;44.20;;;;;;5969482;23;20706;-84
2023/03/31 06:45:03;;;;;;;0.77;0.60;;;17.90;44.10;;;;;;6016639;23;20142;-83
2023/03/31 06:47:33;;;;;;;0.90;0.60;;;18.00;43.70;;;;;;6016024;23;20139;-84
2023/03/31 06:49:58;;;;;;;1.20;0.50;;;18.10;43.70;;;;;;5970327;23;20165;-83
2023/03/31 06:52:24;;;;;;;1.35;0.70;;;18.10;43.40;;;;;;6045635;23;20236;-85
2023/03/31 06:54:50;;;;;;;0.63;0.43;;;18.20;43.30;;;;;;6045598;23;20201;-83
2023/03/31 06:57:16;;;;;;;0.90;0.50;;;18.20;43.30;;;;;;6073623;23;20146;-84
2023/03/31 06:59:42;;;;;;;0.40;0.40;;;18.20;43.30;;;;;;6023749;23;20224;-84
2023/03/31 07:02:09;;;;;;;0.40;0.40;;;18.20;43.50;;;;;;6072897;23;20269;-84
2023/03/31 07:04:35;;;;;;;2.38;0.60;;;18.10;43.50;;;;;;6024231;23;20149;-85
2023/03/31 07:07:01;;;;;;;0.63;0.50;;;18.20;43.30;;;;;;6024698;23;20141;-84
2023/03/31 07:09:27;;;;;;;0.57;0.50;;;18.20;43.10;;;;;;6025428;23;20157;-84
2023/03/31 07:11:58;;;;;;;0.75;0.57;;;18.20;42.80;;;;;;6051531;23;20141;-84
2023/03/31 07:14:24;;;;;;;1.08;0.60;;;18.20;43.20;;;;;;6048760;23;20216;-84
2023/03/31 07:16:50;;;;;;;0.40;0.40;;;18.20;43.20;;;;;;6048449;23;20190;-84
2023/03/31 07:19:16;;;;;;;1.85;0.50;;;18.20;43.30;;;;;;6047540;23;20145;-83
2023/03/31 07:21:42;;;;;;;0.68;0.50;;;18.20;43.50;;;;;;6025321;23;20180;-85
2023/03/31 07:24:12;;;;;;;0.80;0.40;;;18.20;43.50;;;;;;6052238;23;20134;-84
2023/03/31 07:26:38;;;;;;;0.40;0.40;;;18.20;43.50;;;;;;6002179;23;20158;-84
2023/03/31 07:29:08;;;;;;;0.55;0.50;;;18.20;43.50;;;;;;6019425;23;20661;-84
2023/03/31 07:31:34;;;;;;;0.50;0.50;;;18.20;43.40;;;;;;5974704;23;20161;-84
2023/03/31 07:34:01;;;;;;;0.40;0.40;;;18.10;43.20;;;;;;6019017;23;20154;-83
2023/03/31 07:36:31;;;;;;;1.85;0.50;;;18.20;43.60;;;;;;6018609;23;20145;-83
2023/03/31 07:38:57;;;;;;;0.50;0.50;;;18.20;43.60;;;;;;5974988;23;20182;-83
2023/03/31 07:41:24;;;;;;;0.70;0.60;;;18.20;43.50;;;;;;6023012;23;20641;-84
2023/03/31 07:43:56;;;;;;;0.73;0.52;;;18.20;43.50;;;;;;6021689;23;20221;-84
2023/03/31 07:46:27;;;;;;;1.42;0.40;;;18.10;43.40;;;;;;5974247;23;20182;-85
2023/03/31 07:49:01;;;;;;;0.40;0.40;;;18.20;43.50;;;;;;5974642;23;20174;-83
2023/03/31 07:51:31;;;;;;;1.88;0.50;;;18.20;43.40;;;;;;5976450;23;20533;-84
2023/03/31 07:53:57;;;;;;;0.40;0.40;;;18.20;43.40;;;;;;5954432;23;20158;-84
2023/03/31 07:56:27;;;;;;;0.40;0.40;;;18.20;43.70;;;;;;6024198;23;20150;-84
2023/03/31 07:58:53;;;;;;;0.60;0.43;;;18.20;43.50;;;;;;5977499;23;20645;-84
2023/03/31 08:01:27;;;;;;;0.50;0.50;;;18.20;43.30;;;;;;6030120;23;20173;-84
2023/03/31 08:04:02;;;;;;;0.52;0.50;;;18.10;43.60;;;;;;6006785;23;20160;-84
2023/03/31 08:06:32;;;;;;;0.93;0.50;;;18.10;43.60;;;;;;6028381;23;20225;-84
2023/03/31 08:08:58;;;;;;;0.52;0.50;;;18.20;43.60;;;;;;6005350;23;20153;-83
2023/03/31 08:11:24;;;;;;;0.50;0.50;;;18.20;43.40;;;;;;6029385;23;20161;-83
2023/03/31 08:13:55;;;;;;;0.73;0.50;;;18.20;43.40;;;;;;6029828;23;20157;-84
2023/03/31 08:16:25;;;;;;;0.45;0.40;;;18.20;43.70;;;;;;5980681;23;20654;-83
2023/03/31 08:18:56;;;;;;;0.47;0.47;;;18.10;43.90;;;;;;6001779;23;20529;-84
2023/03/31 08:21:22;;;;;;;0.50;0.50;;;18.10;43.60;;;;;;6001764;23;20720;-84
2023/03/31 08:23:48;;;;;;;0.50;0.50;;;18.20;43.90;;;;;;6050886;23;20134;-84
2023/03/31 08:26:20;;;;;;;0.50;0.50;;;18.20;43.50;;;;;;6026107;23;20192;-84
2023/03/31 08:28:50;;;;;;;0.82;0.57;;;18.20;43.30;;;;;;6002774;23;20225;-84
2023/03/31 08:31:20;;;;;;;0.40;0.40;;;18.20;43.20;;;;;;5976440;23;20162;-84
2023/03/31 08:33:46;;;;;;;0.43;0.43;;;18.30;43.30;;;;;;5963015;24;20298;-84
2023/03/31 08:36:12;;;;;;;0.63;0.30;;;18.20;43.90;;;;;;5940436;24;20695;-84
2023/03/31 08:38:41;;;;;;;0.85;0.43;;;18.20;43.60;;;;;;5938697;24;20538;-84
2023/03/31 08:41:22;;;;;;;1.35;0.52;;;18.30;43.70;;;;;;5940687;24;20256;-84
2023/03/31 08:43:48;;;;;;;0.40;0.40;;;18.20;43.50;;;;;;5966101;24;20227;-84
2023/03/31 08:46:16;;;;;;;0.63;0.30;;;18.20;43.40;;;;;;5943226;24;20573;-84
2023/03/31 08:48:47;;;;;;;0.45;0.40;;;18.30;43.60;;;;;;5943687;24;20155;-84
2023/03/31 08:51:20;;;;;;;0.80;0.45;;;18.30;43.70;;;;;;5942577;24;20199;-84
2023/03/31 08:53:56;;;;;;;0.63;0.50;;;18.30;43.40;;;;;;5944450;24;20174;-84
2023/03/31 08:56:26;;;;;;;0.63;0.43;;;18.40;43.00;;;;;;5921054;24;20163;-82
2023/03/31 08:59:00;;;;;;;0.38;0.38;;;18.40;42.90;;;;;;5925182;24;20159;-84
2023/03/31 09:01:48;;;;;;;0.60;0.50;;;18.50;42.80;;;;;;5925102;24;20186;-85
2023/03/31 09:04:34;;;;;;;0.40;0.40;;;18.40;42.70;;;;;;5970125;23;20253;-85
2023/03/31 09:07:33;;;;;;;1.05;0.55;;;18.50;42.60;;;;;;6056746;23;20160;-83
2023/03/31 09:10:38;;;;;;;0.47;0.47;;;18.50;42.90;;;;;;6053647;23;20177;-85
2023/03/31 09:13:34;;;;;;;0.43;0.40;;;18.40;42.80;;;;;;6057443;23;20211;-85
2023/03/31 09:16:25;;;;;;;0.77;0.50;;;18.40;42.90;;;;;;5995304;23;20232;-86
2023/03/31 09:18:57;;;;;;;0.40;0.40;;;18.50;42.50;;;;;;5969275;24;20152;-84
2023/03/31 09:21:43;;;;;;;0.40;0.40;;;18.50;42.20;;;;;;5996255;24;20187;-83
2023/03/31 09:24:24;;;;;;;0.47;0.40;;;18.50;42.50;;;;;;5972961;24;20201;-84
2023/03/31 09:27:02;;;;;;;0.30;0.30;;;18.60;42.50;;;;;;5992811;24;20155;-83
2023/03/31 09:29:59;;;;;;;1.40;0.45;;;18.50;42.50;;;;;;5991467;24;20634;-84
2023/03/31 09:32:31;;;;;;;1.45;0.50;;;18.60;42.30;;;;;;5986429;24;20175;-85
2023/03/31 09:35:21;;;;;;;0.45;0.45;;;18.60;42.60;;;;;;5994403;24;20257;-83
2023/03/31 09:37:50;;;;;;;0.47;0.40;;;18.60;42.70;;;;;;6016963;23;20600;-82
2023/03/31 09:40:20;;;;;;;0.55;0.45;;;18.50;42.60;;;;;;5939647;24;20613;-81
2023/03/31 09:43:02;;;;;;;0.43;0.43;;;18.50;42.60;;;;;;5940341;24;20247;-82
2023/03/31 09:45:34;;;;;;;0.30;0.30;;;18.50;42.60;;;;;;5940640;24;20156;-82
2023/03/31 09:48:05;;;;;;;0.40;0.40;;;18.60;42.50;;;;;;5912855;24;20593;-81
2023/03/31 09:50:32;;;;;;;0.32;0.32;;;18.60;42.60;;;;;;5946747;23;20258;-81
2023/03/31 09:52:59;;;;;;;0.60;0.40;;;18.60;42.30;;;;;;5977973;23;20165;-81
2023/03/31 09:55:31;;;;;;;0.52;0.50;;;18.60;42.60;;;;;;6024719;23;20234;-81
2023/03/31 09:58:00;;;;;;;0.40;0.40;;;18.60;42.50;;;;;;6001128;23;20147;-82
2023/03/31 10:00:27;;;;;;;0.30;0.30;;;18.50;42.70;;;;;;6000903;23;20182;-82
2023/03/31 10:02:56;;;;;;;0.50;0.50;;;18.50;42.60;;;;;;5978099;23;20216;-82
2023/03/31 10:05:35;;;;;;;1.15;0.45;;;18.50;42.40;;;;;;5997649;23;20619;-87
2023/03/31 10:08:26;;;;;;;0.30;0.30;;;18.60;42.40;;;;;;5980013;23;20226;-84
2023/03/31 10:11:06;;;;;;;0.40;0.28;;;18.60;42.40;;;;;;5976358;23;20149;-84
2023/03/31 10:13:52;;;;;;;0.55;0.30;;;18.50;42.70;;;;;;6057888;23;20138;-85
2023/03/31 10:16:42;;;;;;;0.40;0.40;;;18.50;42.60;;;;;;6030440;23;20146;-84
2023/03/31 10:19:28;;;;;;;0.30;0.30;;;18.60;42.60;;;;;;6055617;23;20170;-82
2023/03/31 10:22:10;;;;;;;0.77;0.40;;;18.60;42.40;;;;;;6013374;23;20189;-82
2023/03/31 10:24:38;;;;;;;0.40;0.40;;;18.60;42.50;;;;;;6081944;23;20149;-84
2023/03/31 10:27:23;;;;;;;0.35;0.35;;;18.60;42.50;;;;;;6055655;23;20130;-85
2023/03/31 10:29:58;;;;;;;0.30;0.30;;;18.60;42.50;;;;;;6011823;23;20173;-85
2023/03/31 10:32:29;;;;;;;0.40;0.40;;;18.60;42.20;;;;;;6009303;23;20157;-84
2023/03/31 10:34:57;;;;;;;0.43;0.43;;;18.60;42.30;;;;;;6031236;23;20181;-84
2023/03/31 10:37:28;;;;;;;0.40;0.40;;;18.60;42.30;;;;;;6054904;23;20209;-84
2023/03/31 10:40:16;;;;;;;0.40;0.40;;;18.60;42.10;;;;;;6009879;23;20153;-85
2023/03/31 10:43:05;;;;;;;0.40;0.40;;;18.70;42.00;;;;;;5993198;24;20191;-83
2023/03/31 10:45:44;;;;;;;0.40;0.40;;;18.70;42.20;;;;;;5909828;24;20165;-84
2023/03/31 10:48:27;;;;;;;0.38;0.38;;;18.70;41.90;;;;;;5911740;24;20188;-83
2023/03/31 10:51:13;;;;;;;0.38;0.38;;;18.70;42.30;;;;;;5913228;24;20197;-84
2023/03/31 10:53:47;;;;;;;0.30;0.30;;;18.70;42.00;;;;;;5913633;24;20607;-84
2023/03/31 10:56:41;;;;;;;0.47;0.40;;;18.60;42.10;;;;;;5888366;24;20164;-83
2023/03/31 10:59:41;;;;;;;0.30;0.30;;;18.70;42.50;;;;;;5891736;24;20154;-85
2023/03/31 11:02:49;;;;;;;0.45;0.32;;;18.60;41.70;;;;;;5887553;24;20185;-85
2023/03/31 11:05:38;;;;;;;0.43;0.43;;;18.60;41.80;;;;;;5910371;24;20154;-85
2023/03/31 11:08:42;;;;;;;0.25;0.25;;;18.70;42.10;;;;;;5905936;24;20158;-84
2023/03/31 11:11:38;;;;;;;0.40;0.40;;;18.60;42.00;;;;;;5885096;24;20161;-85
2023/03/31 11:14:16;;;;;;;0.40;0.40;;;18.50;42.40;;;;;;5941419;24;20254;-83
2023/03/31 11:16:58;;;;;;;0.88;0.40;;;18.60;42.00;;;;;;5921407;24;20163;-84
2023/03/31 11:19:48;;;;;;;0.40;0.40;;;18.60;42.00;;;;;;5839928;24;20162;-84
2023/03/31 11:22:41;;;;;;;0.40;0.40;;;18.60;42.00;;;;;;5899368;24;20199;-82
2023/03/31 11:25:14;;;;;;;0.30;0.30;;;18.60;41.70;;;;;;5900081;24;20621;-82
2023/03/31 11:28:18;;;;;;;0.40;0.40;;;18.70;41.90;;;;;;5967703;24;20197;-83
2023/03/31 11:31:05;;;;;;;0.30;0.30;;;18.60;41.80;;;;;;5899498;24;20168;-82
2023/03/31 11:33:52;;;;;;;0.65;0.40;;;18.70;41.90;;;;;;5912821;24;20216;-83
2023/03/31 11:36:51;;;;;;;0.40;0.30;;;18.60;41.70;;;;;;5948698;24;20154;-83
2023/03/31 11:39:56;;;;;;;0.38;0.30;;;18.70;42.20;;;;;;5945872;24;20160;-85
2023/03/31 11:42:34;;;;;;;0.32;0.32;;;18.70;41.70;;;;;;5971844;24;20258;-83
2023/03/31 11:45:13;;;;;;;0.65;0.40;;;18.70;42.20;;;;;;5968823;24;20183;-85
2023/03/31 11:47:45;;;;;;;0.60;0.50;;;18.70;41.90;;;;;;5980413;23;20156;-84
2023/03/31 11:50:16;;;;;;;0.50;0.40;;;18.60;41.80;;;;;;5966860;23;20175;-85
2023/03/31 11:53:05;;;;;;;0.30;0.30;;;18.60;42.40;;;;;;6050402;23;20154;-83
2023/03/31 11:55:32;;;;;;;0.35;0.35;;;18.70;42.40;;;;;;6027151;23;20157;-85
2023/03/31 11:58:04;;;;;;;0.30;0.30;;;18.60;42.20;;;;;;6027018;23;20154;-85
2023/03/31 12:00:38;;;;;;;0.40;0.40;;;18.60;41.80;;;;;;5979629;23;20240;-83
2023/03/31 12:03:14;;;;;;;0.47;0.35;;;18.70;41.90;;;;;;6006029;23;20193;-83
2023/03/31 12:05:44;;;;;;;0.38;0.38;;;18.60;41.90;;;;;;5964600;23;20157;-83
2023/03/31 12:08:25;;;;;;;0.88;0.40;;;18.60;41.90;;;;;;6030890;23;20669;-81
2023/03/31 12:10:55;;;;;;;0.40;0.40;;;18.60;42.00;;;;;;5985103;23;20184;-83
2023/03/31 12:13:35;;;;;;;0.30;0.30;;;18.60;41.70;;;;;;6048779;23;20197;-83
2023/03/31 12:16:18;;;;;;;0.40;0.40;;;18.60;41.90;;;;;;6048861;23;20143;-82
2023/03/31 12:19:02;;;;;;;0.35;0.30;;;18.60;41.90;;;;;;5977565;23;20181;-82
2023/03/31 12:21:27;;;;;;;0.30;0.30;;;18.60;41.70;;;;;;6048963;23;20177;-82
2023/03/31 12:23:53;;;;;;;0.30;0.30;;;18.60;41.40;;;;;;6025530;23;20149;-82
2023/03/31 12:26:35;;;;;;;0.65;0.30;;;18.60;41.80;;;;;;6075407;23;20133;-82
2023/03/31 12:29:08;;;;;;;0.40;0.40;;;18.60;41.40;;;;;;6028076;23;20608;-82
2023/03/31 12:31:39;;;;;;;0.65;0.40;;;18.70;41.40;;;;;;6051532;23;20174;-83
2023/03/31 12:34:13;;;;;;;0.60;0.40;;;18.70;41.40;;;;;;6001212;23;20165;-83
2023/03/31 12:37:05;;;;;;;0.75;0.35;;;18.70;40.90;;;;;;6003437;23;20164;-82
2023/03/31 12:39:39;;;;;;;0.30;0.30;;;18.70;41.20;;;;;;6050073;23;20165;-82
2023/03/31 12:42:40;;;;;;;0.40;0.40;;;18.70;41.60;;;;;;6026594;23;20293;-83
2023/03/31 12:45:25;;;;;;;0.30;0.30;;;18.70;41.60;;;;;;6075979;23;20148;-83
2023/03/31 12:48:10;;;;;;;0.50;0.32;;;18.70;41.40;;;;;;6053600;23;20162;-82
2023/03/31 12:50:51;;;;;;;0.40;0.40;;;18.70;41.40;;;;;;6078732;23;20318;-85
2023/03/31 12:53:40;;;;;;;0.30;0.30;;;18.70;41.40;;;;;;6058615;23;20185;-83
2023/03/31 12:56:10;;;;;;;0.57;0.40;;;18.70;41.50;;;;;;6018626;23;20277;-83
2023/03/31 12:58:38;;;;;;;2.72;0.50;;;18.70;41.20;;;;;;6008671;23;20224;-84
2023/03/31 13:01:23;;;;;;;12.20;1.67;;;18.70;41.20;;;;;;6028777;23;20158;-82
2023/03/31 13:04:20;;;;;;;6.78;1.38;;;18.70;42.00;;;;;;6052755;23;20173;-84
2023/03/31 13:06:51;;;;;;;15.55;1.20;;;18.70;41.50;;;;;;6075667;23;20209;-82
2023/03/31 13:09:37;;;;;;;4.70;0.63;;;18.70;41.90;;;;;;6027417;23;20160;-83
2023/03/31 13:12:13;;;;;;;1.48;0.50;;;18.70;41.20;;;;;;6053155;23;20170;-83
2023/03/31 13:14:39;;;;;;;2.90;0.60;;;18.70;41.10;;;;;;6008721;23;20589;-83
2023/03/31 13:17:45;;;;;;;1.70;0.52;;;18.70;41.30;;;;;;6053061;23;20149;-84
2023/03/31 13:20:26;;;;;;;2.60;0.50;;;18.70;40.80;;;;;;6075324;23;20133;-82
2023/03/31 13:23:05;;;;;;;1.13;0.45;;;18.70;40.90;;;;;;6029259;23;20192;-83
2023/03/31 13:25:36;;;;;;;2.30;0.57;;;18.70;40.80;;;;;;6032295;23;20468;-82